Time;durP1;ratioP1;P1;durP2;ratioP2;P2;SDS_P1;SDS_P2;PMS_P1;PMS_P2;Temp;Humidity;BMP_temperature;BMP_pressure;BME280_temperature;BME280_humidity;BME280_pressure;Samples;Min_cycle;Max_cycle;Signal;HPM_P1;HPM_P2
2023/03/19 00:02:07;;;;;;;21.75;15.95;;;10.20;99.90;;;;;;5117040;28;20047;-64
2023/03/19 00:04:36;;;;;;;21.90;16.17;;;10.20;99.90;;;;;;5117991;27;20446;-66
2023/03/19 00:07:03;;;;;;;20.80;16.10;;;10.20;99.90;;;;;;5117673;28;20044;-63
2023/03/19 00:09:30;;;;;;;23.00;15.82;;;10.20;99.90;;;;;;5118853;28;20070;-64
2023/03/19 00:11:57;;;;;;;23.77;16.73;;;10.20;99.90;;;;;;5118343;28;20127;-63
2023/03/19 00:14:24;;;;;;;23.35;16.27;;;10.20;99.90;;;;;;5118811;28;20051;-64
2023/03/19 00:16:52;;;;;;;23.58;16.40;;;10.20;99.90;;;;;;5117729;28;20117;-64
2023/03/19 00:19:19;;;;;;;22.88;17.08;;;10.10;99.90;;;;;;5118214;28;20047;-64
2023/03/19 00:21:47;;;;;;;22.67;17.42;;;10.10;99.90;;;;;;5118837;28;20039;-64
2023/03/19 00:24:16;;;;;;;24.08;16.92;;;10.10;99.90;;;;;;5117539;28;20445;-63
2023/03/19 00:26:43;;;;;;;22.42;16.08;;;10.00;99.90;;;;;;5118141;28;20047;-64
2023/03/19 00:29:11;;;;;;;21.08;16.95;;;10.10;99.90;;;;;;5115231;28;20096;-63
2023/03/19 00:31:39;;;;;;;21.58;16.50;;;10.00;99.90;;;;;;5114589;28;20558;-64
2023/03/19 00:34:07;;;;;;;20.15;15.93;;;10.00;99.90;;;;;;5112868;28;20093;-63
2023/03/19 00:36:34;;;;;;;21.90;17.10;;;10.00;99.90;;;;;;5115428;28;20074;-64
2023/03/19 00:39:02;;;;;;;22.20;16.92;;;10.00;99.90;;;;;;5113241;28;20047;-63
2023/03/19 00:41:29;;;;;;;19.98;15.95;;;10.10;99.90;;;;;;5114474;28;20058;-64
2023/03/19 00:43:57;;;;;;;25.33;17.70;;;10.10;99.90;;;;;;5115166;28;20122;-63
2023/03/19 00:46:25;;;;;;;23.02;17.15;;;10.10;99.90;;;;;;5115174;28;20043;-63
2023/03/19 00:48:52;;;;;;;24.02;17.67;;;10.10;99.90;;;;;;5114141;28;20122;-63
2023/03/19 00:51:19;;;;;;;23.05;16.75;;;10.10;99.90;;;;;;5113955;28;20059;-63
2023/03/19 00:53:46;;;;;;;21.83;16.77;;;10.10;99.90;;;;;;5114720;28;20052;-64
2023/03/19 00:56:17;;;;;;;22.20;16.67;;;10.10;99.90;;;;;;5113939;28;20070;-63
2023/03/19 00:58:44;;;;;;;23.98;16.83;;;10.10;99.90;;;;;;5113815;28;20036;-64
2023/03/19 01:01:14;;;;;;;23.38;16.17;;;10.10;99.90;;;;;;5113261;28;20058;-63
2023/03/19 01:03:41;;;;;;;20.93;15.97;;;10.10;99.90;;;;;;5113324;28;20055;-63
2023/03/19 01:06:08;;;;;;;24.95;16.23;;;10.10;99.90;;;;;;5111264;28;20293;-63
2023/03/19 01:08:35;;;;;;;22.90;16.80;;;10.10;99.90;;;;;;5114096;28;20048;-62
2023/03/19 01:11:07;;;;;;;22.25;16.80;;;10.20;99.90;;;;;;5113536;28;20044;-65
2023/03/19 01:13:35;;;;;;;22.65;16.27;;;10.10;99.90;;;;;;5114381;28;20044;-64
2023/03/19 01:16:02;;;;;;;23.48;16.08;;;10.10;99.90;;;;;;5112799;28;20047;-66
2023/03/19 01:18:30;;;;;;;22.48;16.40;;;10.20;99.90;;;;;;5114604;28;20051;-63
2023/03/19 01:20:57;;;;;;;21.77;16.15;;;10.20;99.90;;;;;;5113468;28;20126;-64
2023/03/19 01:23:24;;;;;;;19.75;15.30;;;10.20;99.90;;;;;;5113724;28;20044;-64
2023/03/19 01:25:51;;;;;;;21.60;15.32;;;10.20;99.90;;;;;;5113713;28;20142;-64
2023/03/19 01:28:18;;;;;;;21.13;15.88;;;10.20;99.90;;;;;;5114688;28;20442;-64
2023/03/19 01:30:46;;;;;;;21.80;15.75;;;10.20;99.90;;;;;;5113918;28;20455;-64
2023/03/19 01:33:14;;;;;;;22.20;16.30;;;10.20;99.90;;;;;;5114208;28;20127;-64
2023/03/19 01:35:42;;;;;;;26.50;16.40;;;10.10;99.90;;;;;;5112364;28;20104;-64
2023/03/19 01:38:09;;;;;;;21.80;16.58;;;10.20;99.90;;;;;;5114367;28;20138;-64
2023/03/19 01:40:36;;;;;;;21.80;16.30;;;10.10;99.90;;;;;;5110969;28;20079;-63
2023/03/19 01:43:16;;;;;;;21.65;16.60;;;10.20;99.90;;;;;;5113388;28;20083;-64
2023/03/19 01:45:46;;;;;;;18.90;14.65;;;10.10;99.90;;;;;;5112809;28;20056;-65
2023/03/19 01:48:20;;;;;;;22.25;16.50;;;10.20;99.90;;;;;;5112962;28;20051;-63
2023/03/19 01:50:52;;;;;;;22.55;15.80;;;10.10;99.90;;;;;;5113668;28;20048;-64
2023/03/19 01:53:24;;;;;;;20.63;15.18;;;10.10;99.90;;;;;;5145360;27;20047;-64
2023/03/19 01:55:54;;;;;;;18.90;15.55;;;10.20;99.90;;;;;;5111827;28;20067;-63
2023/03/19 01:58:21;;;;;;;19.30;14.85;;;10.20;99.90;;;;;;5113543;28;20039;-64
2023/03/19 02:00:50;;;;;;;18.83;14.30;;;10.30;99.90;;;;;;5113677;28;20040;-64
2023/03/19 02:03:17;;;;;;;20.05;15.25;;;10.20;99.90;;;;;;5112144;28;20048;-63
2023/03/19 02:05:46;;;;;;;18.60;14.38;;;10.20;99.90;;;;;;5112989;28;20086;-63
2023/03/19 02:08:17;;;;;;;18.95;13.88;;;10.20;99.90;;;;;;5113916;28;20061;-63
2023/03/19 02:10:46;;;;;;;17.17;13.20;;;10.20;99.90;;;;;;5113523;28;20484;-63
2023/03/19 02:13:13;;;;;;;18.75;13.93;;;10.20;99.90;;;;;;5112887;28;20571;-63
2023/03/19 02:15:40;;;;;;;18.58;13.32;;;10.20;99.90;;;;;;5113704;28;20040;-63
2023/03/19 02:18:09;;;;;;;16.42;12.23;;;10.20;99.90;;;;;;5112757;28;20052;-64
2023/03/19 02:20:44;;;;;;;14.38;11.45;;;10.20;99.90;;;;;;5112387;28;20429;-64
2023/03/19 02:23:16;;;;;;;13.68;10.90;;;10.20;99.90;;;;;;5112174;28;20044;-64
2023/03/19 02:25:57;;;;;;;14.93;10.85;;;10.20;99.90;;;;;;5112732;28;20047;-63
2023/03/19 02:28:25;;;;;;;18.17;11.52;;;10.20;99.90;;;;;;5113413;28;20092;-63
2023/03/19 02:30:52;;;;;;;16.17;11.13;;;10.20;99.90;;;;;;5111931;28;20101;-64
2023/03/19 02:33:19;;;;;;;14.05;10.90;;;10.20;99.90;;;;;;5112674;28;20051;-63
2023/03/19 02:35:49;;;;;;;16.92;10.98;;;10.20;99.90;;;;;;5112068;28;20044;-64
2023/03/19 02:38:16;;;;;;;14.70;11.27;;;10.20;99.90;;;;;;5110508;28;20127;-63
2023/03/19 02:40:49;;;;;;;15.35;12.25;;;10.10;99.90;;;;;;5112412;28;20047;-64
2023/03/19 02:43:17;;;;;;;16.15;12.00;;;10.10;99.90;;;;;;5110461;28;20046;-63
2023/03/19 02:45:44;;;;;;;15.65;11.57;;;10.10;99.90;;;;;;5113161;28;20441;-63
2023/03/19 02:48:11;;;;;;;15.50;10.80;;;10.20;99.90;;;;;;5111167;28;20487;-64
2023/03/19 02:50:38;;;;;;;17.05;11.43;;;10.10;99.90;;;;;;5110364;28;20050;-64
2023/03/19 02:53:05;;;;;;;17.45;11.57;;;10.10;99.90;;;;;;5110451;28;20048;-62
2023/03/19 02:55:32;;;;;;;17.17;11.00;;;10.20;99.90;;;;;;5111767;28;20458;-63
2023/03/19 02:57:59;;;;;;;14.02;10.23;;;10.10;99.90;;;;;;5111248;28;20039;-64
2023/03/19 03:00:27;;;;;;;12.05;8.98;;;10.20;99.90;;;;;;5109709;28;20051;-63
2023/03/19 03:02:56;;;;;;;14.95;11.05;;;10.10;99.90;;;;;;5112496;28;20044;-64
2023/03/19 03:05:23;;;;;;;12.88;9.82;;;10.10;99.90;;;;;;5109388;28;20452;-63
2023/03/19 03:07:50;;;;;;;11.95;9.25;;;10.10;99.90;;;;;;5112024;28;20040;-64
2023/03/19 03:10:17;;;;;;;12.10;9.05;;;10.10;99.90;;;;;;5111573;28;20043;-64
2023/03/19 03:12:45;;;;;;;13.32;8.77;;;10.10;99.90;;;;;;5111205;28;20083;-63
2023/03/19 03:15:13;;;;;;;13.15;9.32;;;10.10;99.90;;;;;;5110939;28;20047;-63
2023/03/19 03:17:44;;;;;;;11.70;9.02;;;10.10;99.90;;;;;;5111405;28;20051;-63
2023/03/19 03:20:12;;;;;;;14.73;8.60;;;10.10;99.90;;;;;;5110995;28;20465;-64
2023/03/19 03:22:40;;;;;;;14.32;8.07;;;10.10;99.90;;;;;;5112018;28;20052;-63
2023/03/19 03:25:09;;;;;;;9.95;7.93;;;10.10;99.90;;;;;;5112426;28;20075;-63
2023/03/19 03:27:36;;;;;;;10.90;7.88;;;10.00;99.90;;;;;;5111351;28;20449;-64
2023/03/19 03:30:04;;;;;;;12.00;8.32;;;10.00;99.90;;;;;;5111707;28;20086;-64
2023/03/19 03:32:31;;;;;;;12.55;8.13;;;10.00;99.90;;;;;;5112537;28;20054;-63
2023/03/19 03:34:59;;;;;;;11.45;7.65;;;10.00;99.90;;;;;;5112264;28;20048;-64
2023/03/19 03:37:26;;;;;;;10.40;8.13;;;10.00;99.90;;;;;;5111616;28;20054;-64
2023/03/19 03:39:53;;;;;;;9.65;7.50;;;10.00;99.90;;;;;;5112235;28;20418;-63
2023/03/19 03:42:20;;;;;;;10.43;7.53;;;10.00;99.90;;;;;;5111637;28;20055;-64
2023/03/19 03:44:47;;;;;;;8.32;7.10;;;10.00;99.90;;;;;;5112220;28;20047;-63
2023/03/19 03:47:14;;;;;;;9.27;6.95;;;10.10;99.90;;;;;;5110869;28;20195;-63
2023/03/19 03:49:41;;;;;;;9.30;7.32;;;10.10;99.90;;;;;;5111790;28;20056;-65
2023/03/19 03:52:10;;;;;;;12.00;7.57;;;10.10;99.90;;;;;;5111014;28;20091;-63
2023/03/19 03:54:37;;;;;;;9.27;6.70;;;10.10;99.90;;;;;;5110951;28;20048;-64
2023/03/19 03:57:04;;;;;;;8.32;6.95;;;10.10;99.90;;;;;;5109345;28;20514;-63
2023/03/19 03:59:31;;;;;;;12.18;7.00;;;10.10;99.90;;;;;;5110415;28;20043;-64
2023/03/19 04:01:58;;;;;;;8.98;6.28;;;10.10;99.90;;;;;;5112405;28;20353;-63
2023/03/19 04:04:25;;;;;;;10.73;6.72;;;10.10;99.90;;;;;;5110126;28;20058;-63
2023/03/19 04:06:52;;;;;;;9.27;6.40;;;10.10;99.90;;;;;;5113488;28;20056;-64
2023/03/19 04:09:20;;;;;;;9.30;6.07;;;10.10;99.90;;;;;;5114450;28;20043;-64
2023/03/19 04:11:47;;;;;;;9.00;6.90;;;10.10;99.90;;;;;;5114239;28;20047;-64
2023/03/19 04:14:15;;;;;;;7.68;6.10;;;10.10;99.90;;;;;;5114396;28;20490;-64
2023/03/19 04:16:42;;;;;;;7.88;6.15;;;10.10;99.90;;;;;;5114513;28;20040;-63
2023/03/19 04:19:09;;;;;;;8.75;6.63;;;10.10;99.90;;;;;;5115079;28;20055;-64
2023/03/19 04:21:36;;;;;;;8.48;5.97;;;10.10;99.90;;;;;;5114307;28;20491;-64
2023/03/19 04:24:04;;;;;;;10.25;6.53;;;10.10;99.90;;;;;;5114194;28;20259;-64
2023/03/19 04:26:32;;;;;;;8.35;5.75;;;10.10;99.90;;;;;;5115077;28;20112;-63
2023/03/19 04:28:59;;;;;;;8.38;5.97;;;10.10;99.90;;;;;;5114041;28;20043;-63
2023/03/19 04:31:26;;;;;;;9.02;5.93;;;10.10;99.90;;;;;;5115758;28;20040;-63
2023/03/19 04:33:53;;;;;;;9.80;6.00;;;10.10;99.90;;;;;;5113757;28;20044;-63
2023/03/19 04:36:21;;;;;;;8.45;5.72;;;10.00;99.90;;;;;;5114360;28;20415;-63
2023/03/19 04:38:48;;;;;;;7.80;5.90;;;10.00;99.90;;;;;;5111048;28;20060;-64
2023/03/19 04:41:15;;;;;;;11.50;6.30;;;10.00;99.90;;;;;;5115090;28;20506;-64
2023/03/19 04:43:44;;;;;;;11.93;6.47;;;10.00;99.90;;;;;;5115270;28;20079;-63
2023/03/19 04:46:11;;;;;;;8.05;5.80;;;10.00;99.90;;;;;;5114732;28;20102;-63
2023/03/19 04:48:38;;;;;;;7.97;5.95;;;10.00;99.90;;;;;;5112172;28;20058;-64
2023/03/19 04:51:07;;;;;;;10.57;6.35;;;10.00;99.90;;;;;;5113880;28;20055;-64
2023/03/19 04:53:35;;;;;;;7.30;5.63;;;10.00;99.90;;;;;;5113113;28;20054;-63
2023/03/19 04:56:02;;;;;;;7.63;6.07;;;10.00;99.90;;;;;;5113864;28;20127;-63
2023/03/19 04:58:29;;;;;;;10.13;5.63;;;10.00;99.90;;;;;;5114956;28;20039;-63
2023/03/19 05:00:57;;;;;;;7.15;5.85;;;10.00;99.90;;;;;;5110814;28;20069;-64
2023/03/19 05:03:25;;;;;;;8.18;6.20;;;10.00;99.90;;;;;;5113593;28;20052;-64
2023/03/19 05:05:53;;;;;;;7.03;5.55;;;10.00;99.90;;;;;;5113463;28;20056;-64
2023/03/19 05:08:22;;;;;;;8.52;6.38;;;10.00;99.90;;;;;;5112925;28;20044;-64
2023/03/19 05:10:49;;;;;;;7.65;6.10;;;9.90;99.90;;;;;;5113506;28;20043;-63
2023/03/19 05:13:16;;;;;;;8.90;6.60;;;9.90;99.90;;;;;;5114604;28;20040;-63
2023/03/19 05:15:43;;;;;;;10.30;7.28;;;9.90;99.90;;;;;;5113124;28;20047;-63
2023/03/19 05:18:12;;;;;;;9.65;6.95;;;9.80;99.90;;;;;;5114210;28;20043;-65
2023/03/19 05:20:41;;;;;;;10.05;7.32;;;9.70;99.90;;;;;;5114416;28;20040;-65
2023/03/19 05:23:08;;;;;;;12.27;7.82;;;9.70;99.90;;;;;;5111241;28;20411;-65
2023/03/19 05:25:35;;;;;;;10.63;7.32;;;9.70;99.90;;;;;;5114644;28;20500;-65
2023/03/19 05:28:02;;;;;;;10.07;7.28;;;9.70;99.90;;;;;;5112769;28;20051;-64
2023/03/19 05:30:29;;;;;;;11.55;7.10;;;9.70;99.90;;;;;;5114297;28;20096;-65
2023/03/19 05:32:56;;;;;;;9.85;7.20;;;9.70;99.90;;;;;;5113060;28;20058;-65
2023/03/19 05:35:26;;;;;;;11.70;7.50;;;9.70;99.90;;;;;;5113629;28;20039;-64
2023/03/19 05:37:53;;;;;;;9.40;7.38;;;9.70;99.90;;;;;;5114252;28;20451;-65
2023/03/19 05:40:21;;;;;;;11.45;7.15;;;9.60;99.90;;;;;;5113995;28;20047;-65
2023/03/19 05:42:47;;;;;;;11.50;7.07;;;9.50;99.90;;;;;;5113360;28;20510;-65
2023/03/19 05:45:15;;;;;;;10.82;8.15;;;9.50;99.90;;;;;;5114197;28;20055;-65
2023/03/19 05:47:42;;;;;;;12.18;8.50;;;9.40;99.90;;;;;;5112764;28;20050;-64
2023/03/19 05:50:10;;;;;;;11.48;8.02;;;9.30;99.90;;;;;;5113451;28;20047;-66
2023/03/19 05:52:38;;;;;;;12.10;7.88;;;9.20;99.90;;;;;;5112887;28;20052;-64
2023/03/19 05:55:07;;;;;;;11.40;8.18;;;9.20;99.90;;;;;;5113789;28;20058;-64
2023/03/19 05:57:34;;;;;;;10.25;7.57;;;9.00;99.90;;;;;;5112232;28;20051;-65
2023/03/19 06:00:01;;;;;;;9.75;7.55;;;9.00;99.90;;;;;;5110419;28;20522;-65
2023/03/19 06:02:27;;;;;;;10.00;7.15;;;9.00;99.90;;;;;;5113727;28;20040;-65
2023/03/19 06:04:54;;;;;;;9.93;6.70;;;8.90;99.90;;;;;;5109410;28;20055;-65
2023/03/19 06:07:21;;;;;;;9.90;6.95;;;8.90;99.90;;;;;;5114028;28;20035;-65
2023/03/19 06:09:50;;;;;;;14.27;7.38;;;8.80;99.90;;;;;;5110155;28;20042;-66
2023/03/19 06:12:17;;;;;;;11.00;7.28;;;8.80;99.90;;;;;;5111944;28;20043;-65
2023/03/19 06:14:46;;;;;;;10.00;7.05;;;8.90;99.90;;;;;;5111169;28;20052;-65
2023/03/19 06:17:12;;;;;;;9.50;7.10;;;8.90;99.90;;;;;;5111623;28;20051;-63
2023/03/19 06:19:39;;;;;;;11.35;7.30;;;9.00;99.90;;;;;;5110159;28;20047;-63
2023/03/19 06:22:06;;;;;;;10.13;6.43;;;9.00;99.90;;;;;;5105173;27;21717;-64
2023/03/19 06:24:34;;;;;;;9.18;7.38;;;9.60;99.90;;;;;;5107715;28;20109;-64
2023/03/19 06:27:02;;;;;;;8.57;7.10;;;9.40;99.90;;;;;;5108356;28;20051;-62
2023/03/19 06:29:29;;;;;;;11.30;7.70;;;9.40;99.90;;;;;;5111025;28;20403;-63
2023/03/19 06:31:56;;;;;;;11.32;7.80;;;9.40;99.90;;;;;;5108414;28;20039;-62
2023/03/19 06:34:23;;;;;;;9.20;6.63;;;9.30;99.90;;;;;;5111125;28;20051;-64
2023/03/19 06:36:52;;;;;;;8.93;6.43;;;9.30;99.90;;;;;;5110413;28;20052;-63
2023/03/19 06:39:19;;;;;;;10.68;7.00;;;9.30;99.90;;;;;;5111720;28;20052;-63
2023/03/19 06:41:46;;;;;;;9.65;7.10;;;9.20;99.90;;;;;;5109980;28;20044;-63
2023/03/19 06:44:15;;;;;;;9.00;6.78;;;9.20;99.90;;;;;;5109994;28;20055;-63
2023/03/19 06:46:42;;;;;;;9.73;7.00;;;9.30;99.90;;;;;;5108482;28;20087;-62
2023/03/19 06:49:09;;;;;;;11.25;7.35;;;9.30;99.90;;;;;;5111728;28;20407;-63
2023/03/19 06:51:36;;;;;;;10.20;7.55;;;9.30;99.90;;;;;;5108276;28;20104;-63
2023/03/19 06:54:03;;;;;;;9.95;6.88;;;9.40;99.90;;;;;;5108556;28;20047;-64
2023/03/19 06:56:30;;;;;;;10.63;7.32;;;9.70;99.90;;;;;;5111007;28;20168;-64
2023/03/19 06:58:57;;;;;;;8.35;6.13;;;10.00;99.90;;;;;;5110370;28;20495;-63
2023/03/19 07:01:25;;;;;;;8.30;6.57;;;10.30;99.90;;;;;;5108751;28;20048;-63
2023/03/19 07:03:52;;;;;;;7.43;6.40;;;10.60;99.90;;;;;;5109256;28;20108;-63
2023/03/19 07:06:19;;;;;;;7.63;6.38;;;10.90;99.90;;;;;;5110150;28;20066;-63
2023/03/19 07:08:46;;;;;;;8.98;5.97;;;11.00;99.90;;;;;;5110373;28;20047;-63
2023/03/19 07:11:13;;;;;;;7.75;6.22;;;11.20;99.90;;;;;;5111501;28;20553;-63
2023/03/19 07:13:40;;;;;;;11.40;6.85;;;11.40;99.90;;;;;;5108006;28;20044;-63
2023/03/19 07:16:08;;;;;;;8.48;5.75;;;11.90;99.90;;;;;;5110902;28;20122;-63
2023/03/19 07:18:36;;;;;;;9.25;5.90;;;12.50;99.90;;;;;;5108606;28;20055;-63
2023/03/19 07:21:04;;;;;;;8.70;5.13;;;13.20;99.90;;;;;;5109891;28;20039;-63
2023/03/19 07:23:31;;;;;;;6.10;4.88;;;14.10;99.90;;;;;;5107988;28;20503;-63
2023/03/19 07:25:58;;;;;;;6.85;4.90;;;14.80;99.90;;;;;;5111201;28;20054;-63
2023/03/19 07:28:24;;;;;;;7.10;4.80;;;15.50;99.90;;;;;;5109092;28;20040;-63
2023/03/19 07:30:52;;;;;;;6.00;4.28;;;15.60;99.90;;;;;;5108986;28;20125;-64
2023/03/19 07:33:20;;;;;;;5.78;4.57;;;16.00;99.90;;;;;;5107912;28;20047;-64
2023/03/19 07:35:48;;;;;;;6.88;5.32;;;16.40;99.90;;;;;;5107926;28;20050;-64
2023/03/19 07:38:15;;;;;;;7.45;5.30;;;16.60;99.90;;;;;;5106912;28;20051;-65
2023/03/19 07:40:42;;;;;;;8.27;5.20;;;17.00;99.90;;;;;;5113105;28;20039;-64
2023/03/19 07:43:09;;;;;;;10.18;5.28;;;17.10;99.90;;;;;;5112811;28;20047;-64
2023/03/19 07:45:36;;;;;;;7.32;6.07;;;17.40;99.90;;;;;;5113148;28;20054;-64
2023/03/19 07:48:03;;;;;;;8.80;5.80;;;17.20;99.90;;;;;;5113952;28;20376;-64
2023/03/19 07:50:30;;;;;;;7.50;5.53;;;16.90;99.90;;;;;;5112721;28;20416;-63
2023/03/19 07:52:58;;;;;;;7.82;5.75;;;16.90;99.90;;;;;;5113695;28;20047;-64
2023/03/19 07:55:26;;;;;;;8.30;6.32;;;17.30;99.90;;;;;;5112463;28;20952;-65
2023/03/19 07:57:53;;;;;;;7.40;6.40;;;17.70;99.90;;;;;;5114387;28;20491;-64
2023/03/19 08:00:20;;;;;;;8.90;7.07;;;17.90;99.90;;;;;;5113516;28;20050;-64
2023/03/19 08:02:47;;;;;;;8.38;6.70;;;18.40;99.90;;;;;;5112606;28;20502;-65
2023/03/19 08:05:15;;;;;;;8.95;6.63;;;18.50;99.90;;;;;;5112800;28;20518;-64
2023/03/19 08:07:42;;;;;;;8.77;7.22;;;18.50;99.90;;;;;;5114434;28;20124;-63
2023/03/19 08:10:12;;;;;;;9.25;7.90;;;18.20;99.90;;;;;;5113123;28;20040;-64
2023/03/19 08:12:40;;;;;;;10.27;7.55;;;18.50;99.90;;;;;;5113810;28;20043;-63
2023/03/19 08:15:09;;;;;;;9.68;7.75;;;18.50;99.90;;;;;;5113554;28;20050;-65
2023/03/19 08:17:37;;;;;;;10.60;8.15;;;18.30;99.90;;;;;;5111694;28;20087;-64
2023/03/19 08:20:07;;;;;;;10.70;8.30;;;18.60;99.90;;;;;;5112241;28;20055;-65
2023/03/19 08:22:35;;;;;;;11.65;9.07;;;18.60;99.90;;;;;;5110639;28;20100;-64
2023/03/19 08:25:02;;;;;;;11.48;9.07;;;18.40;99.90;;;;;;5112773;28;20112;-63
2023/03/19 08:27:33;;;;;;;13.90;10.20;;;17.80;99.90;;;;;;5113985;28;20415;-64
2023/03/19 08:30:00;;;;;;;11.57;9.75;;;17.20;99.90;;;;;;5114937;28;20078;-64
2023/03/19 08:32:27;;;;;;;12.10;9.85;;;16.70;99.90;;;;;;5112294;28;20043;-63
2023/03/19 08:34:54;;;;;;;12.38;10.73;;;15.90;99.90;;;;;;5114685;28;20119;-64
2023/03/19 08:37:21;;;;;;;13.10;11.20;;;15.00;99.90;;;;;;5112015;28;20047;-64
2023/03/19 08:39:50;;;;;;;16.58;11.43;;;14.50;99.90;;;;;;5113803;28;20517;-64
2023/03/19 08:42:17;;;;;;;14.77;10.60;;;14.10;99.90;;;;;;5111563;28;20491;-63
2023/03/19 08:44:46;;;;;;;14.07;10.63;;;14.20;99.90;;;;;;5113146;28;20235;-64
2023/03/19 08:47:13;;;;;;;15.73;10.73;;;14.00;99.90;;;;;;5110943;28;20104;-64
2023/03/19 08:49:40;;;;;;;12.50;9.43;;;13.70;99.90;;;;;;5114759;28;20051;-63
2023/03/19 08:52:07;;;;;;;15.32;10.52;;;13.70;99.90;;;;;;5108299;28;20132;-65
2023/03/19 08:54:35;;;;;;;15.57;10.45;;;13.70;99.90;;;;;;5114160;28;20062;-65
2023/03/19 08:57:03;;;;;;;13.77;10.65;;;13.40;99.90;;;;;;5112454;28;20050;-65
2023/03/19 08:59:30;;;;;;;15.40;10.98;;;13.50;99.90;;;;;;5113297;28;20056;-63
2023/03/19 09:01:58;;;;;;;13.88;10.40;;;13.50;99.90;;;;;;5112610;28;20067;-63
2023/03/19 09:04:25;;;;;;;15.02;11.95;;;13.30;99.90;;;;;;5111974;28;20403;-64
2023/03/19 09:06:52;;;;;;;15.38;11.55;;;13.20;99.90;;;;;;5111359;28;20055;-64
2023/03/19 09:09:20;;;;;;;14.35;10.98;;;13.20;99.90;;;;;;5113810;28;20051;-64
2023/03/19 09:11:48;;;;;;;15.77;12.00;;;13.30;99.90;;;;;;5113849;28;20086;-64
2023/03/19 09:14:15;;;;;;;14.70;10.48;;;13.10;99.90;;;;;;5111505;28;20044;-63
2023/03/19 09:16:43;;;;;;;12.77;10.57;;;13.10;99.90;;;;;;5114072;28;20047;-64
2023/03/19 09:19:11;;;;;;;13.18;9.88;;;13.20;99.90;;;;;;5113141;28;20043;-64
2023/03/19 09:21:38;;;;;;;12.75;9.70;;;13.10;99.90;;;;;;5112992;28;20392;-64
2023/03/19 09:24:06;;;;;;;13.55;10.25;;;13.00;99.90;;;;;;5111507;28;20043;-64
2023/03/19 09:26:33;;;;;;;15.25;11.10;;;12.90;99.90;;;;;;5114066;28;20112;-63
2023/03/19 09:29:00;;;;;;;12.90;9.55;;;12.90;99.90;;;;;;5110263;28;20039;-64
2023/03/19 09:31:27;;;;;;;10.77;8.23;;;13.00;99.90;;;;;;5112788;28;20071;-63
2023/03/19 09:33:54;;;;;;;10.43;8.48;;;12.90;99.90;;;;;;5112273;28;20108;-64
2023/03/19 09:36:22;;;;;;;12.52;8.25;;;12.80;99.90;;;;;;5112174;28;20052;-63
2023/03/19 09:38:49;;;;;;;13.00;9.00;;;12.70;99.90;;;;;;5109490;28;20044;-63
2023/03/19 09:41:25;;;;;;;11.20;9.25;;;12.70;99.90;;;;;;5111650;28;20131;-64
2023/03/19 09:44:02;;;;;;;10.43;8.30;;;12.80;99.90;;;;;;5112033;28;20071;-64
2023/03/19 09:46:37;;;;;;;10.77;8.45;;;13.00;99.90;;;;;;5112148;28;20051;-64
2023/03/19 09:49:11;;;;;;;13.10;9.57;;;13.10;99.90;;;;;;5110994;28;20445;-63
2023/03/19 09:51:46;;;;;;;13.32;9.50;;;13.10;99.90;;;;;;5110057;28;20143;-65
2023/03/19 09:54:24;;;;;;;13.52;9.60;;;13.20;99.90;;;;;;5109509;28;20101;-63
2023/03/19 09:56:51;;;;;;;14.32;10.07;;;13.20;99.90;;;;;;5111640;28;20048;-64
2023/03/19 09:59:19;;;;;;;12.40;9.20;;;13.10;99.90;;;;;;5113304;28;20592;-63
2023/03/19 10:01:53;;;;;;;12.38;9.48;;;13.10;99.90;;;;;;5111120;28;20052;-63
2023/03/19 10:04:39;;;;;;;11.25;9.00;;;13.00;99.90;;;;;;5111383;28;20056;-63
2023/03/19 10:07:15;;;;;;;10.68;8.48;;;13.00;99.90;;;;;;5110229;28;20051;-64
2023/03/19 10:09:52;;;;;;;12.23;8.65;;;12.80;99.90;;;;;;5145339;27;20151;-64
2023/03/19 10:12:29;;;;;;;13.48;8.90;;;12.80;99.90;;;;;;5111059;28;20429;-64
2023/03/19 10:15:19;;;;;;;13.07;9.20;;;12.80;99.90;;;;;;5110550;28;20054;-64
2023/03/19 10:17:56;;;;;;;11.68;9.45;;;12.80;99.90;;;;;;5108927;28;20082;-64
2023/03/19 10:20:36;;;;;;;12.43;9.10;;;12.70;99.90;;;;;;5110474;28;20043;-64
2023/03/19 10:23:38;;;;;;;12.60;8.33;;;12.80;99.90;;;;;;5109431;28;20044;-64
2023/03/19 10:26:09;;;;;;;11.93;9.65;;;12.80;99.90;;;;;;5092305;28;20099;-64
2023/03/19 10:28:36;;;;;;;12.05;9.15;;;12.80;99.90;;;;;;5111648;28;20051;-64
2023/03/19 10:31:35;;;;;;;13.00;9.13;;;12.80;99.90;;;;;;5112369;28;20047;-63
2023/03/19 10:34:19;;;;;;;11.43;8.85;;;12.80;99.90;;;;;;5097213;28;20058;-63
2023/03/19 10:36:45;;;;;;;13.15;8.68;;;12.80;99.90;;;;;;5111977;28;20062;-62
2023/03/19 10:39:17;;;;;;;13.77;9.82;;;12.90;99.90;;;;;;5111417;28;20456;-62
2023/03/19 10:41:50;;;;;;;11.82;9.07;;;12.90;99.90;;;;;;5112396;28;20036;-62
2023/03/19 10:44:29;;;;;;;14.60;9.40;;;13.00;99.90;;;;;;5111196;28;20048;-63
2023/03/19 10:46:58;;;;;;;12.88;9.45;;;13.00;99.90;;;;;;5112304;28;20759;-64
2023/03/19 10:49:26;;;;;;;12.82;10.23;;;13.00;99.90;;;;;;5111647;28;20130;-63
2023/03/19 10:51:57;;;;;;;12.82;9.20;;;13.00;99.90;;;;;;5112213;28;20047;-64
2023/03/19 10:54:27;;;;;;;14.52;9.65;;;13.20;99.90;;;;;;5111473;28;20050;-64
2023/03/19 10:56:56;;;;;;;14.63;10.32;;;13.00;99.90;;;;;;5111685;28;20049;-64
2023/03/19 10:59:25;;;;;;;14.40;10.48;;;13.00;99.90;;;;;;5111854;28;20058;-63
2023/03/19 11:01:57;;;;;;;13.48;9.90;;;12.90;99.90;;;;;;5111541;28;20051;-63
2023/03/19 11:04:26;;;;;;;14.73;11.18;;;12.70;99.90;;;;;;5102196;28;20063;-63
2023/03/19 11:06:55;;;;;;;13.30;9.98;;;12.60;99.90;;;;;;5106698;28;20109;-64
2023/03/19 11:09:32;;;;;;;13.85;10.52;;;12.40;99.90;;;;;;5112091;28;20050;-64
2023/03/19 11:12:07;;;;;;;13.65;10.27;;;12.40;99.90;;;;;;5108670;28;20079;-63
2023/03/19 11:14:37;;;;;;;15.95;10.13;;;12.40;99.90;;;;;;5110456;28;20055;-63
2023/03/19 11:17:06;;;;;;;14.70;11.05;;;12.30;99.90;;;;;;5105336;28;20047;-63
2023/03/19 11:19:40;;;;;;;21.03;10.97;;;12.30;99.90;;;;;;5108377;28;20374;-64
2023/03/19 11:22:19;;;;;;;17.05;13.25;;;12.30;99.90;;;;;;5105905;28;20040;-64
2023/03/19 11:24:52;;;;;;;22.30;13.80;;;12.20;99.90;;;;;;5109099;28;20398;-63
2023/03/19 11:27:27;;;;;;;20.20;13.45;;;12.20;99.90;;;;;;5108972;28;20051;-64
2023/03/19 11:29:53;;;;;;;17.30;12.18;;;12.20;99.90;;;;;;5110355;28;20054;-65
2023/03/19 11:32:45;;;;;;;18.60;13.15;;;12.40;99.90;;;;;;5111275;28;20051;-64
2023/03/19 11:35:17;;;;;;;25.77;16.48;;;12.40;99.90;;;;;;5108735;28;20048;-64
2023/03/19 11:37:54;;;;;;;26.77;17.17;;;12.50;99.90;;;;;;5107600;28;20047;-63
2023/03/19 11:40:33;;;;;;;23.55;16.00;;;12.30;99.90;;;;;;5106684;28;20122;-63
2023/03/19 11:43:31;;;;;;;21.35;14.93;;;12.30;99.90;;;;;;5108342;28;20043;-64
2023/03/19 11:46:09;;;;;;;15.73;11.73;;;12.30;99.90;;;;;;5092115;28;20138;-65
2023/03/19 11:48:47;;;;;;;15.73;10.85;;;12.30;99.90;;;;;;5106154;28;20051;-65
2023/03/19 11:51:22;;;;;;;13.90;9.95;;;12.40;99.90;;;;;;5106244;28;20529;-63
2023/03/19 11:54:00;;;;;;;15.63;10.77;;;12.50;99.90;;;;;;5108990;28;20059;-63
2023/03/19 11:56:38;;;;;;;14.85;10.63;;;12.60;99.90;;;;;;5107369;28;20055;-63
2023/03/19 11:59:33;;;;;;;17.10;11.30;;;12.50;99.90;;;;;;5109833;28;20511;-62
2023/03/19 12:02:27;;;;;;;14.95;11.02;;;12.30;99.90;;;;;;5107727;28;20487;-63
2023/03/19 12:05:05;;;;;;;15.23;11.02;;;12.30;99.90;;;;;;5109297;28;20047;-63
2023/03/19 12:07:37;;;;;;;14.55;11.07;;;12.10;99.90;;;;;;5105138;28;20056;-63
2023/03/19 12:10:25;;;;;;;14.85;11.23;;;12.10;99.90;;;;;;5108249;28;20055;-63
2023/03/19 12:13:02;;;;;;;16.58;11.88;;;12.00;99.90;;;;;;5107995;28;20040;-63
2023/03/19 12:15:37;;;;;;;19.58;12.32;;;12.00;99.90;;;;;;5108117;28;20051;-62
2023/03/19 12:18:13;;;;;;;19.65;12.68;;;12.00;99.90;;;;;;5108682;28;20054;-63
2023/03/19 12:20:56;;;;;;;18.77;12.10;;;12.00;99.90;;;;;;5110333;28;20047;-62
2023/03/19 12:23:45;;;;;;;19.73;13.15;;;12.20;99.90;;;;;;5108241;28;20123;-62
2023/03/19 12:26:19;;;;;;;19.38;12.98;;;12.00;99.90;;;;;;5104733;28;20055;-63
2023/03/19 12:28:58;;;;;;;18.77;12.73;;;12.00;99.90;;;;;;5111495;28;20509;-62
2023/03/19 12:31:40;;;;;;;18.42;13.25;;;11.90;99.90;;;;;;5107314;28;20060;-63
2023/03/19 12:34:22;;;;;;;20.58;13.68;;;12.30;99.90;;;;;;5111624;28;20096;-63
2023/03/19 12:36:53;;;;;;;18.73;11.68;;;12.20;99.90;;;;;;5112700;28;20524;-63
2023/03/19 12:39:26;;;;;;;19.55;13.00;;;12.10;99.90;;;;;;5111150;28;20059;-62
2023/03/19 12:41:58;;;;;;;22.55;14.18;;;12.10;99.90;;;;;;5113472;28;20036;-62
2023/03/19 12:44:32;;;;;;;21.17;14.02;;;11.90;99.90;;;;;;5111805;28;20089;-63
2023/03/19 12:47:03;;;;;;;20.15;13.48;;;11.70;99.90;;;;;;5111829;28;20056;-62
2023/03/19 12:49:35;;;;;;;24.02;15.50;;;11.80;99.90;;;;;;5109594;28;20116;-62